createdAt,value
2017-12-04T00:00:51.513Z,3.00
2017-12-04T00:01:54.014Z,3.00
2017-12-04T00:02:56.479Z,3.00
2017-12-04T00:03:58.980Z,3.00
2017-12-04T00:05:01.488Z,3.00
2017-12-04T00:06:04.767Z,3.00
2017-12-04T00:07:07.301Z,3.00
2017-12-04T00:08:09.956Z,3.00
2017-12-04T00:09:12.439Z,3.00
2017-12-04T00:10:15.034Z,3.00
2017-12-04T00:11:18.366Z,3.00
2017-12-04T00:12:20.888Z,3.10
2017-12-04T00:13:23.422Z,3.00
2017-12-04T00:14:25.906Z,3.00
2017-12-04T00:15:28.376Z,3.10
2017-12-04T00:16:30.985Z,3.10
2017-12-04T00:17:33.475Z,3.10
2017-12-04T00:18:35.951Z,3.10
2017-12-04T00:19:38.801Z,3.10
2017-12-04T00:20:42.139Z,3.10
2017-12-04T00:21:44.622Z,3.10
2017-12-04T00:22:47.114Z,3.10
2017-12-04T00:23:49.629Z,3.10
2017-12-04T00:24:53.226Z,3.10
2017-12-04T00:25:55.740Z,3.10
2017-12-04T00:26:58.300Z,3.10
2017-12-04T00:28:00.780Z,3.10
2017-12-04T00:29:03.394Z,3.20
2017-12-04T00:30:06.865Z,3.20
2017-12-04T00:31:09.356Z,3.20
2017-12-04T00:32:12.760Z,3.20
2017-12-04T00:33:17.026Z,3.20
2017-12-04T00:34:20.230Z,3.20
2017-12-04T00:35:22.722Z,3.20
2017-12-04T00:36:25.238Z,3.30
2017-12-04T00:37:27.726Z,3.30
2017-12-04T00:38:30.997Z,3.30
2017-12-04T00:39:33.564Z,3.30
2017-12-04T00:40:36.019Z,3.30
2017-12-04T00:41:38.706Z,3.30
2017-12-04T00:42:41.938Z,3.30
2017-12-04T00:43:45.213Z,3.30
2017-12-04T00:44:48.020Z,3.20
2017-12-04T00:45:51.375Z,3.30
2017-12-04T00:46:53.891Z,3.30
2017-12-04T00:47:57.166Z,3.30
2017-12-04T00:48:59.759Z,3.30
2017-12-04T00:50:03.015Z,3.30
2017-12-04T00:51:05.511Z,3.30
2017-12-04T00:52:08.228Z,3.30
2017-12-04T00:53:11.006Z,3.30
2017-12-04T00:54:14.359Z,3.30
2017-12-04T00:55:16.853Z,3.30
2017-12-04T00:56:20.086Z,3.40
2017-12-04T00:57:22.573Z,3.40
2017-12-04T00:58:25.089Z,3.40
2017-12-04T00:59:27.609Z,3.40
2017-12-04T01:00:30.122Z,3.40
2017-12-04T01:01:32.699Z,3.40
2017-12-04T01:02:35.179Z,3.40
2017-12-04T01:03:37.722Z,3.40
2017-12-04T01:04:40.211Z,3.40
2017-12-04T01:05:43.437Z,3.40
2017-12-04T01:06:45.939Z,3.40
2017-12-04T01:07:48.419Z,3.50
2017-12-04T01:08:50.918Z,3.50
2017-12-04T01:09:54.160Z,3.40
2017-12-04T01:10:57.420Z,3.40
2017-12-04T01:11:59.873Z,3.40
2017-12-04T01:13:02.382Z,3.40
2017-12-04T01:14:04.963Z,3.40
2017-12-04T01:15:07.434Z,3.40
2017-12-04T01:16:10.075Z,3.50
2017-12-04T01:17:12.584Z,3.50
2017-12-04T01:18:15.075Z,3.50
2017-12-04T01:19:17.686Z,3.40
2017-12-04T01:20:20.163Z,3.40
2017-12-04T01:21:23.390Z,3.50
2017-12-04T01:22:26.635Z,3.50
2017-12-04T01:23:29.916Z,3.50
2017-12-04T01:24:32.790Z,3.50
2017-12-04T01:25:35.263Z,3.40
2017-12-04T01:26:37.786Z,3.50
2017-12-04T01:27:40.270Z,3.40
2017-12-04T01:28:42.854Z,3.40
2017-12-04T01:29:45.308Z,3.50
2017-12-04T01:30:47.782Z,3.50
2017-12-04T01:31:50.240Z,3.50
2017-12-04T01:32:52.727Z,3.40
2017-12-04T01:33:55.222Z,3.50
2017-12-04T01:34:58.462Z,3.50
2017-12-04T01:36:01.709Z,3.50
2017-12-04T01:37:04.179Z,3.50
2017-12-04T01:38:06.646Z,3.50
2017-12-04T01:39:09.148Z,3.50
2017-12-04T01:40:11.601Z,3.50
2017-12-04T01:41:14.113Z,3.50
2017-12-04T01:42:16.601Z,3.50
2017-12-04T01:43:19.085Z,3.50
2017-12-04T01:44:22.305Z,3.50
2017-12-04T01:45:24.786Z,3.50
2017-12-04T01:46:27.249Z,3.50
2017-12-04T01:47:29.732Z,3.50
2017-12-04T01:48:32.252Z,3.50
2017-12-04T01:49:34.766Z,3.50
2017-12-04T01:50:38.004Z,3.50
2017-12-04T01:51:41.263Z,3.50
2017-12-04T01:52:43.737Z,3.50
2017-12-04T01:53:46.242Z,3.50
2017-12-04T01:54:48.712Z,3.50
2017-12-04T01:55:51.960Z,3.50
2017-12-04T01:56:55.185Z,3.50
2017-12-04T01:57:57.655Z,3.50
2017-12-04T01:59:00.187Z,3.50
2017-12-04T02:00:02.672Z,3.50
2017-12-04T02:01:05.941Z,3.50
2017-12-04T02:02:08.412Z,3.50
2017-12-04T02:03:10.991Z,3.50
2017-12-04T02:04:13.527Z,3.50
2017-12-04T02:05:16.052Z,3.50
2017-12-04T02:06:18.520Z,3.50
2017-12-04T02:07:21.015Z,3.50
2017-12-04T02:08:23.476Z,3.50
2017-12-04T02:09:25.967Z,3.50
2017-12-04T02:10:28.432Z,3.50
2017-12-04T02:11:30.921Z,3.50
2017-12-04T02:12:33.383Z,3.50
2017-12-04T02:13:36.667Z,3.50
2017-12-04T02:14:39.162Z,3.50
2017-12-04T02:15:42.400Z,3.50
2017-12-04T02:16:45.686Z,3.50
2017-12-04T02:17:48.193Z,3.50
2017-12-04T02:18:50.667Z,3.50
2017-12-04T02:19:53.258Z,3.50
2017-12-04T02:20:55.738Z,3.50
2017-12-04T02:21:58.210Z,3.50
2017-12-04T02:23:00.698Z,3.50
2017-12-04T02:24:03.958Z,3.50
2017-12-04T02:25:06.474Z,3.50
2017-12-04T02:26:09.717Z,3.50
2017-12-04T02:27:12.987Z,3.50
2017-12-04T02:28:15.473Z,3.50
2017-12-04T02:29:17.935Z,3.50
2017-12-04T02:30:20.449Z,3.50
2017-12-04T02:31:22.912Z,3.50
2017-12-04T02:32:25.408Z,3.60
2017-12-04T02:33:27.923Z,3.50
2017-12-04T02:34:30.438Z,3.50
2017-12-04T02:35:34.146Z,3.50
2017-12-04T02:36:36.619Z,3.50
2017-12-04T02:37:39.843Z,3.50
2017-12-04T02:38:43.079Z,3.50
2017-12-04T02:39:45.563Z,3.50
2017-12-04T02:40:48.055Z,3.50
2017-12-04T02:41:50.524Z,3.50
2017-12-04T02:42:53.029Z,3.50
2017-12-04T02:43:55.488Z,3.50
2017-12-04T02:44:57.965Z,3.50
2017-12-04T02:46:00.473Z,3.50
2017-12-04T02:47:03.835Z,3.50
2017-12-04T02:48:06.305Z,3.50
2017-12-04T02:49:08.888Z,3.50
2017-12-04T02:50:11.354Z,3.50
2017-12-04T02:51:13.820Z,3.50
2017-12-04T02:52:17.076Z,3.50
2017-12-04T02:53:19.559Z,3.50
2017-12-04T02:54:22.118Z,3.50
2017-12-04T02:55:24.604Z,3.60
2017-12-04T02:56:27.072Z,3.60
2017-12-04T02:57:29.582Z,3.50
2017-12-04T02:58:32.102Z,3.60
2017-12-04T02:59:35.254Z,3.60
2017-12-04T03:00:37.998Z,3.60
2017-12-04T03:01:40.617Z,3.60
2017-12-04T03:02:43.940Z,3.60
2017-12-04T03:03:47.340Z,3.60
2017-12-04T03:04:49.950Z,3.60
2017-12-04T03:05:52.476Z,3.60
2017-12-04T03:06:54.940Z,3.60
2017-12-04T03:07:57.441Z,3.60
2017-12-04T03:08:59.977Z,3.60
2017-12-04T03:10:02.454Z,3.60
2017-12-04T03:11:05.705Z,3.60
2017-12-04T03:12:08.942Z,3.60
2017-12-04T03:13:12.218Z,3.60
2017-12-04T03:14:14.718Z,3.60
2017-12-04T03:15:17.545Z,3.60
2017-12-04T03:16:20.229Z,3.60
2017-12-04T03:17:22.759Z,3.60
2017-12-04T03:18:25.259Z,3.60
2017-12-04T03:19:27.997Z,3.60
2017-12-04T03:20:30.490Z,3.60
2017-12-04T03:21:32.967Z,3.60
2017-12-04T03:22:38.348Z,3.60
2017-12-04T03:23:41.911Z,3.60
2017-12-04T03:24:45.287Z,3.60
2017-12-04T03:25:48.571Z,3.60
2017-12-04T03:26:51.047Z,3.60
2017-12-04T03:27:54.570Z,3.70
2017-12-04T03:28:57.041Z,3.70
2017-12-04T03:30:00.270Z,3.60
2017-12-04T03:31:03.642Z,3.60
2017-12-04T03:32:06.322Z,3.60
2017-12-04T03:33:08.936Z,3.60
2017-12-04T03:34:11.410Z,3.70
2017-12-04T03:35:14.064Z,3.60
2017-12-04T03:36:16.551Z,3.70
2017-12-04T03:37:19.831Z,3.70
2017-12-04T03:38:22.343Z,3.70
2017-12-04T03:39:24.816Z,3.70
2017-12-04T03:40:27.316Z,3.70
2017-12-04T03:41:29.807Z,3.70
2017-12-04T03:42:33.074Z,3.70
2017-12-04T03:43:35.578Z,3.70
2017-12-04T03:44:38.063Z,3.70
2017-12-04T03:45:40.565Z,3.70
2017-12-04T03:46:43.073Z,3.70
2017-12-04T03:47:45.546Z,3.70
2017-12-04T03:48:48.018Z,3.70
2017-12-04T03:49:50.492Z,3.70
2017-12-04T03:50:53.733Z,3.70
2017-12-04T03:51:56.226Z,3.70
2017-12-04T03:52:58.690Z,3.70
2017-12-04T03:54:01.957Z,3.70
2017-12-04T03:55:05.187Z,3.80
2017-12-04T03:56:08.471Z,3.80
2017-12-04T03:57:10.934Z,3.80
2017-12-04T03:58:13.413Z,3.80
2017-12-04T03:59:15.877Z,3.80
2017-12-04T04:00:18.565Z,3.80
2017-12-04T04:01:21.042Z,3.80
2017-12-04T04:02:24.441Z,3.80
2017-12-04T04:03:26.919Z,3.80
2017-12-04T04:04:29.396Z,3.80
2017-12-04T04:05:31.918Z,3.80
2017-12-04T04:06:34.569Z,3.80
2017-12-04T04:07:37.035Z,3.80
2017-12-04T04:08:40.280Z,3.80
2017-12-04T04:09:43.510Z,3.80
2017-12-04T04:10:46.772Z,3.80
2017-12-04T04:11:49.253Z,3.80
2017-12-04T04:12:51.729Z,3.80
2017-12-04T04:13:54.212Z,3.80
2017-12-04T04:14:56.677Z,3.80
2017-12-04T04:15:59.154Z,3.80
2017-12-04T04:17:01.861Z,3.80
2017-12-04T04:18:04.362Z,3.80
2017-12-04T04:19:07.018Z,3.80
2017-12-04T04:20:09.520Z,3.80
2017-12-04T04:21:12.029Z,3.80
2017-12-04T04:22:15.259Z,3.80
2017-12-04T04:23:18.531Z,3.80
2017-12-04T04:24:20.999Z,3.80
2017-12-04T04:25:23.500Z,3.70
2017-12-04T04:26:26.415Z,3.70
2017-12-04T04:27:28.939Z,3.80
2017-12-04T04:28:31.409Z,3.80
2017-12-04T04:29:33.867Z,3.80
2017-12-04T04:30:37.139Z,3.80
2017-12-04T04:31:39.618Z,3.80
2017-12-04T04:32:42.079Z,3.80
2017-12-04T04:33:44.538Z,3.80
2017-12-04T04:34:47.099Z,3.80
2017-12-04T04:35:49.594Z,3.80
2017-12-04T04:36:52.112Z,3.80
2017-12-04T04:37:54.601Z,3.80
2017-12-04T04:38:58.490Z,3.90
2017-12-04T04:40:01.737Z,3.90
2017-12-04T04:41:04.342Z,3.90
2017-12-04T04:42:06.814Z,4.00
2017-12-04T04:43:09.362Z,4.00
2017-12-04T04:44:12.626Z,4.00
2017-12-04T04:45:15.134Z,4.00
2017-12-04T04:46:18.455Z,4.00
2017-12-04T04:47:20.897Z,4.10
2017-12-04T04:48:24.129Z,4.10
2017-12-04T04:49:27.387Z,4.10
2017-12-04T04:50:30.628Z,4.10
2017-12-04T04:51:33.932Z,4.10
2017-12-04T04:52:36.401Z,4.10
2017-12-04T04:53:39.686Z,4.10
2017-12-04T04:54:42.147Z,4.10
2017-12-04T04:55:44.636Z,4.10
2017-12-04T04:56:47.129Z,4.10
2017-12-04T04:57:49.618Z,4.10
2017-12-04T04:58:52.099Z,4.10
2017-12-04T04:59:54.601Z,4.10
2017-12-04T05:00:57.120Z,4.10
2017-12-04T05:02:00.382Z,4.20
2017-12-04T05:03:02.870Z,4.20
2017-12-04T05:04:06.120Z,4.20
2017-12-04T05:05:08.594Z,4.20
2017-12-04T05:06:11.081Z,4.20
2017-12-04T05:07:14.343Z,4.20
2017-12-04T05:08:16.818Z,4.20
2017-12-04T05:09:19.290Z,4.20
2017-12-04T05:10:21.790Z,4.20
2017-12-04T05:11:24.308Z,4.30
2017-12-04T05:12:26.774Z,4.30
2017-12-04T05:13:29.242Z,4.30
2017-12-04T05:14:32.354Z,4.30
2017-12-04T05:15:34.840Z,4.30
2017-12-04T05:16:37.341Z,4.30
2017-12-04T05:17:39.794Z,4.30
2017-12-04T05:18:42.302Z,4.30
2017-12-04T05:19:45.563Z,4.30
2017-12-04T05:20:48.786Z,4.30
2017-12-04T05:21:52.070Z,4.30
2017-12-04T05:22:54.579Z,4.30
2017-12-04T05:23:57.073Z,4.30
2017-12-04T05:24:59.564Z,4.30
2017-12-04T05:26:02.038Z,4.40
2017-12-04T05:27:05.307Z,4.40
2017-12-04T05:28:07.785Z,4.30
2017-12-04T05:29:10.255Z,4.30
2017-12-04T05:30:12.766Z,4.40
2017-12-04T05:31:15.295Z,4.40
2017-12-04T05:32:17.782Z,4.40
2017-12-04T05:33:20.225Z,4.40
2017-12-04T05:34:23.466Z,4.40
2017-12-04T05:35:26.728Z,4.40
2017-12-04T05:36:29.223Z,4.40
2017-12-04T05:37:31.806Z,4.40
2017-12-04T05:38:34.283Z,4.40
2017-12-04T05:39:37.560Z,4.40
2017-12-04T05:40:40.843Z,4.40
2017-12-04T05:41:43.297Z,4.40
2017-12-04T05:42:46.696Z,4.40
2017-12-04T05:43:49.174Z,4.40
2017-12-04T05:44:52.435Z,4.40
2017-12-04T05:45:54.977Z,4.30
2017-12-04T05:46:57.431Z,4.40
2017-12-04T05:47:59.951Z,4.40
2017-12-04T05:49:03.180Z,4.40
2017-12-04T05:50:05.659Z,4.40
2017-12-04T05:51:08.943Z,4.40
2017-12-04T05:52:11.387Z,4.40
2017-12-04T05:53:13.876Z,4.40
2017-12-04T05:54:16.334Z,4.40
2017-12-04T05:55:18.809Z,4.40
2017-12-04T05:56:22.070Z,4.40
2017-12-04T05:57:24.544Z,4.40
2017-12-04T05:58:27.010Z,4.40
2017-12-04T05:59:29.502Z,4.40
2017-12-04T06:00:31.986Z,4.40
2017-12-04T06:01:34.607Z,4.40
2017-12-04T06:02:37.094Z,4.40
2017-12-04T06:03:40.331Z,4.40
2017-12-04T06:04:43.552Z,4.40
2017-12-04T06:05:46.076Z,4.40
2017-12-04T06:06:48.550Z,4.40
2017-12-04T06:07:51.054Z,4.50
2017-12-04T06:08:54.305Z,4.40
2017-12-04T06:09:56.803Z,4.40
2017-12-04T06:10:59.379Z,4.40
2017-12-04T06:12:01.879Z,4.40
2017-12-04T06:13:04.335Z,4.40
2017-12-04T06:14:06.803Z,4.40
2017-12-04T06:15:11.002Z,4.40
2017-12-04T06:16:14.276Z,4.40
2017-12-04T06:17:16.776Z,4.40
2017-12-04T06:18:19.244Z,4.40
2017-12-04T06:19:21.747Z,4.40
2017-12-04T06:20:24.213Z,4.40
2017-12-04T06:21:26.801Z,4.40
2017-12-04T06:22:29.340Z,4.40
2017-12-04T06:23:31.822Z,4.40
2017-12-04T06:24:34.330Z,4.40
2017-12-04T06:25:37.658Z,4.40
2017-12-04T06:26:40.127Z,4.40
2017-12-04T06:27:43.211Z,4.40
2017-12-04T06:28:45.677Z,4.40
2017-12-04T06:29:48.204Z,4.40
2017-12-04T06:30:51.426Z,4.40
2017-12-04T06:31:54.669Z,4.40
2017-12-04T06:32:57.964Z,4.40
2017-12-04T06:34:00.422Z,4.40
2017-12-04T06:35:03.067Z,4.40
2017-12-04T06:36:06.293Z,4.40
2017-12-04T06:37:08.745Z,4.40
2017-12-04T06:38:11.997Z,4.40
2017-12-04T06:39:14.475Z,4.40
2017-12-04T06:40:16.952Z,4.40
2017-12-04T06:41:19.417Z,4.40
2017-12-04T06:42:21.889Z,4.40
2017-12-04T06:43:25.135Z,4.40
2017-12-04T06:44:27.611Z,4.40
2017-12-04T06:45:30.064Z,4.40
2017-12-04T06:46:33.323Z,4.40
2017-12-04T06:47:36.557Z,4.40
2017-12-04T06:48:39.931Z,4.50
2017-12-04T06:49:42.439Z,4.40
2017-12-04T06:50:45.662Z,4.50
2017-12-04T06:51:48.940Z,4.40
2017-12-04T06:52:51.425Z,4.40
2017-12-04T06:53:54.860Z,4.50
2017-12-04T06:54:58.830Z,4.50
2017-12-04T06:56:01.290Z,4.50
2017-12-04T06:57:03.820Z,4.50
2017-12-04T06:58:06.304Z,4.50
2017-12-04T06:59:08.820Z,4.40
2017-12-04T07:00:11.409Z,4.40
2017-12-04T07:01:13.874Z,4.40
2017-12-04T07:02:16.353Z,4.40
2017-12-04T07:03:20.170Z,4.40
2017-12-04T07:04:23.458Z,4.50
2017-12-04T07:05:26.156Z,4.50
2017-12-04T07:06:29.415Z,4.50
2017-12-04T07:07:32.631Z,4.50
2017-12-04T07:08:35.894Z,4.50
2017-12-04T07:09:38.382Z,4.50
2017-12-04T07:10:40.877Z,4.40
2017-12-04T07:11:43.342Z,4.50
2017-12-04T07:12:46.620Z,4.50
2017-12-04T07:13:49.118Z,4.50
2017-12-04T07:14:52.505Z,4.50
2017-12-04T07:15:55.059Z,4.50
2017-12-04T07:16:57.658Z,4.50
2017-12-04T07:18:00.151Z,4.50
2017-12-04T07:19:02.656Z,4.50
2017-12-04T07:20:05.168Z,4.50
2017-12-04T07:21:07.671Z,4.50
2017-12-04T07:22:10.448Z,4.50
2017-12-04T07:23:13.706Z,4.50
2017-12-04T07:24:16.930Z,4.50
2017-12-04T07:25:20.171Z,4.50
2017-12-04T07:26:23.415Z,4.50
2017-12-04T07:27:26.675Z,4.50
2017-12-04T07:28:29.257Z,4.50
2017-12-04T07:29:31.767Z,4.50
2017-12-04T07:30:34.259Z,4.50
2017-12-04T07:31:36.920Z,4.50
2017-12-04T07:32:39.387Z,4.50
2017-12-04T07:33:42.687Z,4.50
2017-12-04T07:34:45.137Z,4.50
2017-12-04T07:35:47.619Z,4.50
2017-12-04T07:36:50.077Z,4.50
2017-12-04T07:37:52.575Z,4.50
2017-12-04T07:38:55.048Z,4.50
2017-12-04T07:39:57.573Z,4.50
2017-12-04T07:41:01.559Z,4.60
2017-12-04T07:42:04.051Z,4.60
2017-12-04T07:43:06.543Z,4.60
2017-12-04T07:44:09.011Z,4.60
2017-12-04T07:45:12.845Z,4.60
2017-12-04T07:46:15.333Z,4.60
2017-12-04T07:47:17.854Z,4.60
2017-12-04T07:48:20.329Z,4.50
2017-12-04T07:49:22.887Z,4.60
2017-12-04T07:50:26.130Z,4.60
2017-12-04T07:51:30.422Z,4.50
2017-12-04T07:52:35.064Z,4.50
2017-12-04T07:53:38.423Z,4.50
2017-12-04T07:54:40.960Z,4.60
2017-12-04T07:55:43.631Z,4.50
2017-12-04T07:56:46.118Z,4.50
2017-12-04T07:57:48.611Z,4.50
2017-12-04T07:58:51.864Z,4.50
2017-12-04T07:59:55.099Z,4.50
2017-12-04T08:00:58.394Z,4.50
2017-12-04T08:02:00.862Z,4.50
2017-12-04T08:03:04.078Z,4.50
2017-12-04T08:04:06.578Z,4.50
2017-12-04T08:05:09.031Z,4.60
2017-12-04T08:06:11.527Z,4.60
2017-12-04T08:07:14.264Z,4.60
2017-12-04T08:08:16.728Z,4.60
2017-12-04T08:09:19.225Z,4.60
2017-12-04T08:10:21.771Z,4.60
2017-12-04T08:11:24.250Z,4.60
2017-12-04T08:12:26.769Z,4.60
2017-12-04T08:13:29.248Z,4.60
2017-12-04T08:14:31.728Z,4.60
2017-12-04T08:15:34.183Z,4.60
2017-12-04T08:16:36.687Z,4.60
2017-12-04T08:17:39.284Z,4.60
2017-12-04T08:18:41.818Z,4.60
2017-12-04T08:19:44.290Z,4.60
2017-12-04T08:20:46.898Z,4.60
2017-12-04T08:21:49.390Z,4.60
2017-12-04T08:22:51.915Z,4.60
2017-12-04T08:23:54.385Z,4.60
2017-12-04T08:24:56.945Z,4.60
2017-12-04T08:25:59.447Z,4.70
2017-12-04T08:27:01.935Z,4.70
2017-12-04T08:28:04.435Z,4.80
2017-12-04T08:29:07.949Z,4.80
2017-12-04T08:30:10.412Z,4.80
2017-12-04T08:31:12.882Z,4.90
2017-12-04T08:32:16.611Z,4.90
2017-12-04T08:33:19.137Z,4.90
2017-12-04T08:34:21.637Z,4.90
2017-12-04T08:35:24.967Z,5.00
2017-12-04T08:36:28.218Z,5.00
2017-12-04T08:37:31.477Z,5.00
2017-12-04T08:38:34.130Z,5.00
2017-12-04T08:39:36.667Z,5.00
2017-12-04T08:40:39.136Z,5.00
2017-12-04T08:41:42.407Z,4.90
2017-12-04T08:42:44.935Z,4.90
2017-12-04T08:43:47.390Z,4.90
2017-12-04T08:44:53.600Z,4.90
2017-12-04T08:45:56.090Z,4.90
2017-12-04T08:46:58.648Z,4.90
2017-12-04T08:48:01.172Z,4.90
2017-12-04T08:49:04.559Z,4.90
2017-12-04T08:50:08.178Z,4.90
2017-12-04T08:51:10.715Z,4.90
2017-12-04T08:52:13.237Z,4.90
2017-12-04T08:53:15.702Z,4.90
2017-12-04T08:54:18.627Z,4.90
2017-12-04T08:55:21.885Z,4.90
2017-12-04T08:56:24.395Z,4.90
2017-12-04T08:57:27.652Z,5.00
2017-12-04T08:58:30.103Z,5.00
2017-12-04T08:59:32.576Z,5.00
2017-12-04T09:00:35.832Z,5.00
2017-12-04T09:01:39.311Z,5.10
2017-12-04T09:02:41.818Z,5.10
2017-12-04T09:03:44.267Z,5.10
2017-12-04T09:04:46.805Z,5.10
2017-12-04T09:05:49.598Z,5.10
2017-12-04T09:06:52.078Z,5.10
2017-12-04T09:07:54.551Z,5.20
2017-12-04T09:08:57.049Z,5.10
2017-12-04T09:10:00.515Z,5.20
2017-12-04T09:11:03.051Z,5.20
2017-12-04T09:12:05.515Z,5.20
2017-12-04T09:13:07.998Z,5.20
2017-12-04T09:14:10.543Z,5.20
2017-12-04T09:15:14.430Z,5.20
2017-12-04T09:16:17.049Z,5.30
2017-12-04T09:17:21.849Z,5.30
2017-12-04T09:18:24.393Z,5.30
2017-12-04T09:19:26.903Z,5.40
2017-12-04T09:20:30.168Z,5.40
2017-12-04T09:21:33.437Z,5.40
2017-12-04T09:22:35.960Z,5.40
2017-12-04T09:23:38.446Z,5.40
2017-12-04T09:24:41.720Z,5.30
2017-12-04T09:25:44.262Z,5.30
2017-12-04T09:26:47.220Z,5.30
2017-12-04T09:27:49.683Z,5.30
2017-12-04T09:28:52.916Z,5.30
2017-12-04T09:29:55.432Z,5.30
2017-12-04T09:30:57.912Z,5.30
2017-12-04T09:32:00.374Z,5.30
2017-12-04T09:33:02.844Z,5.40
2017-12-04T09:34:06.112Z,5.30
2017-12-04T09:35:08.573Z,5.30
2017-12-04T09:36:11.038Z,5.30
2017-12-04T09:37:13.535Z,5.30
2017-12-04T09:38:16.810Z,5.30
2017-12-04T09:39:19.319Z,5.30
2017-12-04T09:40:22.568Z,5.30
2017-12-04T09:41:25.131Z,5.30
2017-12-04T09:42:27.643Z,5.20
2017-12-04T09:43:30.113Z,5.20
2017-12-04T09:44:32.677Z,5.20
2017-12-04T09:45:35.148Z,5.20
2017-12-04T09:46:38.288Z,5.20
2017-12-04T09:47:40.776Z,5.20
2017-12-04T09:48:43.272Z,5.20
2017-12-04T09:49:46.503Z,5.10
2017-12-04T09:50:48.970Z,5.10
2017-12-04T09:51:51.533Z,5.10
2017-12-04T09:52:54.055Z,5.10
2017-12-04T09:53:57.030Z,5.00
2017-12-04T09:55:00.284Z,5.00
2017-12-04T09:56:03.522Z,4.90
2017-12-04T09:57:06.930Z,4.80
2017-12-04T09:58:09.391Z,4.80
2017-12-04T09:59:12.637Z,4.40
2017-12-04T10:00:15.882Z,4.20
2017-12-04T10:01:18.375Z,4.20
2017-12-04T10:02:20.842Z,4.10
2017-12-04T10:03:23.352Z,3.90
2017-12-04T10:04:26.608Z,3.70
2017-12-04T10:05:29.873Z,3.50
2017-12-04T10:06:32.339Z,3.50
2017-12-04T10:07:34.804Z,3.40
2017-12-04T10:08:37.312Z,3.30
2017-12-04T10:09:40.543Z,3.10
2017-12-04T10:10:43.864Z,3.10
2017-12-04T10:11:46.398Z,3.10
2017-12-04T10:12:48.878Z,3.00
2017-12-04T10:13:51.387Z,3.00
2017-12-04T10:14:53.891Z,3.00
2017-12-04T10:15:56.466Z,3.00
2017-12-04T10:16:58.968Z,3.00
2017-12-04T10:18:01.418Z,3.00
2017-12-04T10:19:03.916Z,3.00
2017-12-04T10:20:06.394Z,3.10
2017-12-04T10:21:10.367Z,3.10
2017-12-04T10:22:13.632Z,3.10
2017-12-04T10:23:16.118Z,3.10
2017-12-04T10:24:19.367Z,3.20
2017-12-04T10:25:21.846Z,3.20
2017-12-04T10:26:24.352Z,3.20
2017-12-04T10:27:27.583Z,3.20
2017-12-04T10:28:30.870Z,3.30
2017-12-04T10:29:33.430Z,3.30
2017-12-04T10:30:35.893Z,3.30
2017-12-04T10:31:39.135Z,3.30
2017-12-04T10:32:41.603Z,3.30
2017-12-04T10:33:44.102Z,3.30
2017-12-04T10:34:46.567Z,3.30
2017-12-04T10:35:49.134Z,3.30
2017-12-04T10:36:51.658Z,3.30
2017-12-04T10:37:54.171Z,3.30
2017-12-04T10:38:57.407Z,3.30
2017-12-04T10:40:01.593Z,3.30
2017-12-04T10:41:04.068Z,3.30
2017-12-04T10:42:06.542Z,3.30
2017-12-04T10:43:09.039Z,3.20
2017-12-04T10:44:11.500Z,3.20
2017-12-04T10:45:14.027Z,3.20
2017-12-04T10:46:16.490Z,3.10
2017-12-04T10:47:18.951Z,3.20
2017-12-04T10:48:22.200Z,3.20
2017-12-04T10:49:25.466Z,3.20
2017-12-04T10:50:27.933Z,3.20
2017-12-04T10:51:31.173Z,3.20
2017-12-04T10:52:33.643Z,3.20
2017-12-04T10:53:36.893Z,3.30
2017-12-04T10:54:39.427Z,3.30
2017-12-04T10:55:41.947Z,3.30
2017-12-04T10:56:44.435Z,3.40
2017-12-04T10:57:46.917Z,3.30
2017-12-04T10:58:49.371Z,3.40
2017-12-04T10:59:51.864Z,3.50
2017-12-04T11:00:54.320Z,3.50
2017-12-04T11:01:56.799Z,3.60
2017-12-04T11:02:59.306Z,3.60
2017-12-04T11:04:01.781Z,3.70
2017-12-04T11:05:04.275Z,3.70
2017-12-04T11:06:06.751Z,3.80
2017-12-04T11:07:09.219Z,3.80
2017-12-04T11:08:12.458Z,3.90
2017-12-04T11:09:14.922Z,3.90
2017-12-04T11:10:17.415Z,3.90
2017-12-04T11:11:19.943Z,4.00
2017-12-04T11:12:22.418Z,4.00
2017-12-04T11:13:24.920Z,4.00
2017-12-04T11:14:27.448Z,4.10
2017-12-04T11:15:29.937Z,4.10
2017-12-04T11:16:33.022Z,4.20
2017-12-04T11:17:35.498Z,4.20
2017-12-04T11:18:37.967Z,4.20
2017-12-04T11:19:40.428Z,4.20
2017-12-04T11:20:43.686Z,4.30
2017-12-04T11:21:46.184Z,4.30
2017-12-04T11:22:48.648Z,4.30
2017-12-04T11:23:51.113Z,4.30
2017-12-04T11:24:53.595Z,4.40
2017-12-04T11:25:56.095Z,4.40
2017-12-04T11:26:59.349Z,4.50
2017-12-04T11:28:02.585Z,4.50
2017-12-04T11:29:05.843Z,4.50
2017-12-04T11:30:08.304Z,4.50
2017-12-04T11:31:10.791Z,4.50
2017-12-04T11:32:13.296Z,4.60
2017-12-04T11:33:16.525Z,4.60
2017-12-04T11:34:19.007Z,4.60
2017-12-04T11:35:21.513Z,4.70
2017-12-04T11:36:24.772Z,4.70
2017-12-04T11:37:27.226Z,4.70
2017-12-04T11:38:29.804Z,4.80
2017-12-04T11:39:32.367Z,4.70
2017-12-04T11:40:34.858Z,4.80
2017-12-04T11:41:37.434Z,4.80
2017-12-04T11:42:40.027Z,4.90
2017-12-04T11:43:42.492Z,4.90
2017-12-04T11:44:45.082Z,4.90
2017-12-04T11:45:47.544Z,5.00
2017-12-04T11:46:50.039Z,5.10
2017-12-04T11:47:52.560Z,5.10
2017-12-04T11:48:55.020Z,5.10
2017-12-04T11:49:57.630Z,5.20
2017-12-04T11:51:00.119Z,5.30
2017-12-04T11:52:02.686Z,5.30
2017-12-04T11:53:05.174Z,5.40
2017-12-04T11:54:07.634Z,5.40
2017-12-04T11:55:10.091Z,5.50
2017-12-04T11:56:12.552Z,5.60
2017-12-04T11:57:15.162Z,5.60
2017-12-04T11:58:17.685Z,5.70
2017-12-04T11:59:20.932Z,5.70
2017-12-04T12:00:24.159Z,5.80
2017-12-04T12:01:27.399Z,5.70
2017-12-04T12:02:29.877Z,5.70
2017-12-04T12:03:32.374Z,5.70
2017-12-04T12:04:34.846Z,5.70
2017-12-04T12:05:37.444Z,5.70
2017-12-04T12:06:40.627Z,5.60
2017-12-04T12:07:43.093Z,5.60
2017-12-04T12:08:45.567Z,5.60
2017-12-04T12:09:48.902Z,5.60
2017-12-04T12:10:51.344Z,5.60
2017-12-04T12:11:53.827Z,5.60
2017-12-04T12:12:56.302Z,5.50
2017-12-04T12:13:59.535Z,5.40
2017-12-04T12:15:02.036Z,5.40
2017-12-04T12:16:04.508Z,5.40
2017-12-04T12:17:07.771Z,5.40
2017-12-04T12:18:10.259Z,5.40
2017-12-04T12:19:12.726Z,5.40
2017-12-04T12:20:16.068Z,5.30
2017-12-04T12:21:18.546Z,5.30
2017-12-04T12:22:21.019Z,5.20
2017-12-04T12:23:23.507Z,5.20
2017-12-04T12:24:26.800Z,5.10
2017-12-04T12:25:29.281Z,5.10
2017-12-04T12:26:32.768Z,5.10
2017-12-04T12:27:35.288Z,5.10
2017-12-04T12:28:37.783Z,5.00
2017-12-04T12:29:41.048Z,5.00
2017-12-04T12:30:43.515Z,5.00
2017-12-04T12:31:45.988Z,5.00
2017-12-04T12:32:48.482Z,5.00
2017-12-04T12:33:50.944Z,5.00
2017-12-04T12:34:53.413Z,5.10
2017-12-04T12:35:55.879Z,5.20
2017-12-04T12:36:59.118Z,5.30
2017-12-04T12:38:02.390Z,5.30
2017-12-04T12:39:04.915Z,5.30
2017-12-04T12:40:07.426Z,5.30
2017-12-04T12:41:09.891Z,5.40
2017-12-04T12:42:12.399Z,5.40
2017-12-04T12:43:14.875Z,5.40
2017-12-04T12:44:18.170Z,5.50
2017-12-04T12:45:20.675Z,5.50
2017-12-04T12:46:23.179Z,5.50
2017-12-04T12:47:26.410Z,5.60
2017-12-04T12:48:29.643Z,5.60
2017-12-04T12:49:32.107Z,5.60
2017-12-04T12:50:34.581Z,5.70
2017-12-04T12:51:37.092Z,5.70
2017-12-04T12:52:39.585Z,5.70
2017-12-04T12:53:42.054Z,5.70
2017-12-04T12:54:45.302Z,5.60
2017-12-04T12:55:47.775Z,5.60
2017-12-04T12:56:50.258Z,5.60
2017-12-04T12:57:52.726Z,5.50
2017-12-04T12:58:55.211Z,5.40
2017-12-04T12:59:57.661Z,5.40
2017-12-04T13:01:00.892Z,5.30
2017-12-04T13:02:04.154Z,5.20
2017-12-04T13:03:06.615Z,5.20
2017-12-04T13:04:09.084Z,5.20
2017-12-04T13:05:12.318Z,5.10
2017-12-04T13:06:15.600Z,5.10
2017-12-04T13:07:18.067Z,5.10
2017-12-04T13:08:20.539Z,5.10
2017-12-04T13:09:23.019Z,5.10
2017-12-04T13:10:25.508Z,5.10
2017-12-04T13:11:27.991Z,5.10
2017-12-04T13:12:31.214Z,5.10
2017-12-04T13:13:33.673Z,5.10
2017-12-04T13:14:36.161Z,5.10
2017-12-04T13:15:38.763Z,5.20
2017-12-04T13:16:41.278Z,5.20
2017-12-04T13:17:43.745Z,5.20
2017-12-04T13:18:46.208Z,5.30
2017-12-04T13:19:48.679Z,5.30
2017-12-04T13:20:51.162Z,5.30
2017-12-04T13:21:53.785Z,5.40
2017-12-04T13:22:56.234Z,5.40
2017-12-04T13:23:58.748Z,5.40
2017-12-04T13:25:01.214Z,5.40
2017-12-04T13:26:03.729Z,5.30
2017-12-04T13:27:07.039Z,5.30
2017-12-04T13:28:09.546Z,5.30
2017-12-04T13:29:12.762Z,5.20
2017-12-04T13:30:16.011Z,5.20
2017-12-04T13:31:18.461Z,5.20
2017-12-04T13:32:32.877Z,5.10
2017-12-04T13:33:47.129Z,5.10
2017-12-04T13:36:44.012Z,5.00
2017-12-04T13:37:46.470Z,4.90
2017-12-04T13:38:48.940Z,4.90
2017-12-04T13:39:51.411Z,4.90
2017-12-04T13:40:53.869Z,4.80
2017-12-04T13:41:57.127Z,4.80
2017-12-04T13:42:59.582Z,4.80
2017-12-04T13:44:02.186Z,4.70
2017-12-04T13:45:04.690Z,4.70
2017-12-04T13:46:07.922Z,4.70
2017-12-04T13:47:11.239Z,4.70
2017-12-04T13:48:13.709Z,4.70
2017-12-04T13:49:17.277Z,4.70
2017-12-04T13:50:19.803Z,4.60
2017-12-04T13:51:22.306Z,4.60
2017-12-04T13:52:25.531Z,4.60
2017-12-04T13:53:28.002Z,4.60
2017-12-04T13:54:30.513Z,4.50
2017-12-04T13:55:33.090Z,4.60
2017-12-04T13:56:35.566Z,4.50
2017-12-04T13:57:38.031Z,4.50